Pagina principală
METAR-TAF:

METAR-TAF

Aeroporturi :

Munda, New Georgia, Insulele Solomon

Latitudine: 8-19-41S, longitudine: 157-15-47E, elevație: 3 m

Observații meteo curente

Raportul a fost făcut în urmă cu 12 ore și 41 de minute, la 03:00 UTC
Vânt 3 kt de la Est/Nord-est
Temperatură 30°C
Umiditate 75%
Presiune 1010 hPa
Vizibilitate de 10 km sau mai mult
Nori puțini la o înălțime de 1800 picior
Nori fragmentați la o înălțime de 10000 picior

METAR: AGGM 250300Z 07003KT 9999 FEW018 BKN100 30/25 Q1010

Ora: 02:41 (15:41 UTC)

Prognoză

Raportul a fost făcut în urmă cu 4 ore și 26 de minute, la 11:15 UTC
Prognoză valabilă de la 25 ora 12 UTC la 26 ora 12 UTC
Vânt kt de la Nord
Vizibilitate: 1010 m
Nori puțini la o înălțime de 1700 picior
Nori împrăștiați la o înălțime de 2800 picior
Nori fragmentați la o înălțime de 10000 picior
averse de ploaie slabă

TAF: AGGM 251115Z 2512/2612 00000KT 9999 -SHRA FEW017 SCT028 BKN100 Q 1011 1009 1008 1010

Observații și prognoze meteo pentru peste 4.000 de aeroporturi (rapoarte METAR și TAF).

Stațiile disponibile sunt reprezentate pe hartă prin puncte galbene și roșii.

Țineți indicatorul mouse-ului pe punctul dorit pentru a vedea denumirea stației.

Apoi, faceți clic pentru a vedea observațiile și prognozele meteorologice.

Pentru a schimba harta: Pentru mărire, faceți clic pe butoanele verzi cu cruce neagră; pentru micșorare, pe butonul verde cu o liniuță; pentru hărți învecinate, pe săgețile verzi.


METAR-TAF: